Time;durP1;ratioP1;P1;durP2;ratioP2;P2;SDS_P1;SDS_P2;PMS_P1;PMS_P2;Temp;Humidity;BMP_temperature;BMP_pressure;BME280_temperature;BME280_humidity;BME280_pressure;Samples;Min_cycle;Max_cycle;Signal;HPM_P1;HPM_P2
2022/11/10 00:00:35;;;;;;;;;27.75;20.50;;;;;13.15;63.82;101669.88;5037311;28;45718;-73
2022/11/10 00:03:06;;;;;;;;;45.25;37.50;;;;;13.07;63.86;101653.16;5031227;28;45450;-75
2022/11/10 00:05:32;;;;;;;;;26.75;22.50;;;;;13.11;64.30;101675.09;5029092;28;45455;-66
2022/11/10 00:08:03;;;;;;;;;20.00;16.50;;;;;13.02;64.16;101675.91;5037089;28;45649;-68
2022/11/10 00:10:28;;;;;;;;;15.50;15.00;;;;;12.85;64.85;101667.03;5028173;28;46851;-67
2022/11/10 00:12:58;;;;;;;;;13.00;12.75;;;;;12.73;65.64;101678.31;5030492;28;45666;-66
2022/11/10 00:18:07;;;;;;;;;22.75;21.25;;;;;12.38;66.39;101684.13;5036082;28;45417;-67
2022/11/10 00:20:33;;;;;;;;;21.25;17.50;;;;;12.25;66.53;101680.53;5032485;28;45767;-67
2022/11/10 00:23:02;;;;;;;;;21.75;18.25;;;;;12.25;67.21;101687.53;5002540;28;45811;-67
2022/11/10 00:25:28;;;;;;;;;20.50;19.00;;;;;12.03;67.41;101683.75;5033081;28;45567;-67
2022/11/10 00:27:54;;;;;;;;;19.00;17.00;;;;;12.10;67.84;101698.72;5016930;28;45379;-66
2022/11/10 00:30:19;;;;;;;;;17.75;12.50;;;;;12.08;67.66;101698.72;5037037;28;46114;-66
2022/11/10 00:32:47;;;;;;;;;14.00;13.25;;;;;12.16;67.85;101711.94;5036257;28;45568;-67
2022/11/10 00:35:13;;;;;;;;;10.50;8.00;;;;;12.19;67.05;101696.19;5032483;28;45419;-67
2022/11/10 00:37:42;;;;;;;;;20.75;13.50;;;;;12.31;67.24;101705.97;5013481;28;45534;-67
2022/11/10 00:40:09;;;;;;;;;16.00;14.25;;;;;12.32;67.28;101714.75;5014550;28;47988;-67
2022/11/10 00:42:35;;;;;;;;;12.00;11.00;;;;;12.30;66.81;101705.09;5017891;28;45402;-67
2022/11/10 00:45:01;;;;;;;;;15.00;14.50;;;;;12.36;66.64;101712.13;5037301;28;45433;-67
2022/11/10 00:47:26;;;;;;;;;13.00;11.25;;;;;12.42;66.75;101711.34;5033365;28;45790;-69
2022/11/10 00:49:52;;;;;;;;;17.50;13.50;;;;;12.47;66.60;101715.75;5014507;28;47313;-71
2022/11/10 00:52:18;;;;;;;;;12.00;12.00;;;;;12.45;66.81;101714.00;5032503;28;45810;-69
2022/11/10 00:54:44;;;;;;;;;9.50;9.50;;;;;12.42;66.71;101722.72;5034885;28;45391;-73
2022/11/10 00:57:10;;;;;;;;;10.00;9.75;;;;;12.50;66.82;101718.44;5035157;28;45462;-67
2022/11/10 00:59:36;;;;;;;;;11.50;10.75;;;;;12.52;66.61;101721.06;5036050;28;46092;-67
2022/11/10 01:02:02;;;;;;;;;20.25;15.25;;;;;12.37;66.73;101728.81;5036095;28;45753;-68
2022/11/10 01:04:32;;;;;;;;;18.00;14.25;;;;;12.28;67.00;101729.56;5036118;28;45671;-68
2022/11/10 01:06:58;;;;;;;;;21.25;18.25;;;;;12.17;67.52;101742.59;5036810;28;45840;-68
2022/11/10 01:09:24;;;;;;;;;20.75;19.50;;;;;12.03;67.84;101734.56;5034869;28;46262;-68
2022/11/10 01:11:50;;;;;;;;;22.00;18.00;;;;;11.93;68.24;101731.78;5035625;28;45930;-70
2022/11/10 01:14:16;;;;;;;;;21.25;18.50;;;;;11.86;68.67;101743.91;5039009;28;45597;-67
2022/11/10 01:16:42;;;;;;;;;20.75;17.50;;;;;11.78;68.32;101732.44;5039495;28;45438;-68
2022/11/10 01:19:08;;;;;;;;;18.75;17.50;;;;;11.73;69.41;101735.03;5034918;28;46324;-65
2022/11/10 01:21:36;;;;;;;;;22.75;18.00;;;;;11.52;69.14;101714.63;5035443;28;45546;-67
2022/11/10 01:24:03;;;;;;;;;22.50;21.00;;;;;11.61;69.19;101737.47;5037750;28;45569;-66
2022/11/10 01:26:29;;;;;;;;;23.25;19.00;;;;;11.57;69.33;101754.91;5039720;28;45466;-67
2022/11/10 01:28:54;;;;;;;;;29.00;21.00;;;;;11.53;69.88;101746.97;5035533;28;45481;-66
2022/11/10 01:31:21;;;;;;;;;20.25;19.75;;;;;11.54;69.92;101754.88;5029060;28;45620;-67
2022/11/10 01:33:48;;;;;;;;;22.25;19.25;;;;;11.43;70.43;101754.69;5016771;28;45387;-67
2022/11/10 01:36:14;;;;;;;;;24.50;19.50;;;;;11.42;70.12;101752.09;5037320;28;45376;-67
2022/11/10 01:38:42;;;;;;;;;19.50;18.25;;;;;11.44;69.68;101758.22;5039399;28;45441;-66
2022/11/10 01:41:10;;;;;;;;;21.00;17.75;;;;;11.48;70.27;101761.78;5026926;28;45439;-67
2022/11/10 01:43:36;;;;;;;;;68.25;52.25;;;;;11.54;69.68;101762.75;5034472;28;45542;-66
2022/11/10 01:46:12;;;;;;;;;68.75;52.25;;;;;11.62;69.68;101768.97;5018169;28;45478;-73
2022/11/10 01:48:55;;;;;;;;;36.25;31.00;;;;;11.62;69.67;101768.09;5037646;28;45950;-73
2022/11/10 01:52:08;;;;;;;;;33.75;28.75;;;;;11.63;69.58;101775.13;5035380;28;45762;-72
2022/11/10 01:54:39;;;;;;;;;26.75;23.00;;;;;11.69;69.47;101769.94;4994001;28;45341;-70
2022/11/10 01:57:08;;;;;;;;;21.25;19.50;;;;;11.75;69.38;101777.03;5037191;28;45475;-67
2022/11/10 01:59:47;;;;;;;;;20.00;17.75;;;;;11.74;68.71;101770.00;5037994;28;46111;-67
2022/11/10 02:02:27;;;;;;;;;20.25;16.25;;;;;11.72;69.11;101767.38;5017156;28;45441;-68
2022/11/10 02:04:53;;;;;;;;;21.75;17.25;;;;;11.78;68.66;101783.19;5034583;28;45419;-67
2022/11/10 02:07:21;;;;;;;;;21.00;16.25;;;;;11.61;69.36;101767.22;5032286;28;45493;-71
2022/11/10 02:09:47;;;;;;;;;19.50;15.25;;;;;11.62;69.51;101786.47;5034089;28;46019;-69
2022/11/10 02:12:13;;;;;;;;;21.25;17.75;;;;;11.52;69.59;101789.81;5019985;28;45490;-70
2022/11/10 02:14:39;;;;;;;;;18.00;16.25;;;;;11.43;70.08;101780.06;5009963;28;45653;-71
2022/11/10 02:17:05;;;;;;;;;19.00;18.25;;;;;11.44;69.71;101787.09;5014961;28;45503;-69
2022/11/10 02:19:39;;;;;;;;;17.00;15.25;;;;;11.41;70.29;101794.88;5024347;28;45388;-69
2022/11/10 02:22:05;;;;;;;;;22.50;18.50;;;;;11.24;70.50;101781.50;5014269;28;45753;-70
2022/11/10 02:24:31;;;;;;;;;23.00;20.75;;;;;11.18;70.52;101786.69;5023430;28;45343;-66
2022/11/10 02:26:57;;;;;;;;;20.50;18.75;;;;;11.23;70.74;101791.13;5037792;28;45542;-69
2022/11/10 02:29:24;;;;;;;;;24.75;17.75;;;;;11.20;70.55;101787.56;5034145;28;45388;-67
2022/11/10 02:31:50;;;;;;;;;19.75;16.75;;;;;11.10;70.93;101789.16;5034838;28;45372;-68
2022/11/10 02:34:15;;;;;;;;;20.50;18.00;;;;;11.02;71.26;101794.28;5020162;28;45402;-67
2022/11/10 02:36:41;;;;;;;;;17.25;16.25;;;;;10.93;71.64;101786.25;5038014;28;45610;-67
2022/11/10 02:39:06;;;;;;;;;17.25;16.00;;;;;10.86;71.77;101796.59;5016952;28;45518;-68
2022/11/10 02:41:32;;;;;;;;;20.25;15.75;;;;;10.70;72.56;101783.25;5015081;28;45431;-67
2022/11/10 02:43:58;;;;;;;;;17.75;17.75;;;;;10.72;72.96;101796.34;5029632;28;45336;-68
2022/11/10 02:46:24;;;;;;;;;19.25;17.00;;;;;10.70;73.09;101798.06;5038300;28;45402;-67
2022/11/10 02:48:50;;;;;;;;;15.50;14.00;;;;;10.71;72.59;101795.47;5037680;28;45934;-68
2022/11/10 02:51:15;;;;;;;;;18.50;16.75;;;;;10.74;72.86;101799.88;5038068;28;45433;-68
2022/11/10 02:53:41;;;;;;;;;21.25;15.75;;;;;10.75;72.31;101801.66;5038267;28;45669;-68
2022/11/10 02:56:07;;;;;;;;;16.50;16.50;;;;;10.60;73.02;101784.78;5017552;28;45454;-68
2022/11/10 02:58:32;;;;;;;;;17.00;14.50;;;;;10.67;72.53;101798.00;5033797;28;46222;-67
2022/11/10 03:00:58;;;;;;;;;16.50;15.75;;;;;10.57;72.66;101789.09;5033865;28;45455;-69
2022/11/10 03:03:23;;;;;;;;;19.75;15.25;;;;;10.58;72.88;101796.09;5015532;28;45469;-66
2022/11/10 03:05:49;;;;;;;;;18.00;16.25;;;;;10.59;73.03;101797.88;5034031;28;45930;-67
2022/11/10 03:08:14;;;;;;;;;14.00;14.00;;;;;10.54;72.54;101783.81;5015116;28;45836;-67
2022/11/10 03:10:40;;;;;;;;;9.75;9.75;;;;;10.65;72.75;101803.22;5033131;28;45475;-68
2022/11/10 03:13:06;;;;;;;;;13.75;13.50;;;;;10.58;72.55;101793.47;5033171;28;45383;-67
2022/11/10 03:15:31;;;;;;;;;17.00;14.75;;;;;10.67;72.79;101800.63;5015328;28;45880;-68
2022/11/10 03:18:02;;;;;;;;;17.75;15.75;;;;;10.51;73.07;101797.72;5030288;28;45482;-67
2022/11/10 03:20:28;;;;;;;;;17.25;14.00;;;;;10.54;72.87;101803.03;5022629;28;45873;-68
2022/11/10 03:22:59;;;;;;;;;16.00;13.50;;;;;10.50;73.17;101800.31;5015586;28;45491;-67
2022/11/10 03:25:25;;;;;;;;;16.25;13.25;;;;;10.40;72.94;101787.03;5015747;28;45529;-67
2022/11/10 03:27:50;;;;;;;;;18.50;15.00;;;;;10.50;73.33;101803.81;5032699;28;45527;-68
2022/11/10 03:30:16;;;;;;;;;20.25;18.00;;;;;10.37;73.37;101804.44;5037343;28;45791;-68
2022/11/10 03:32:41;;;;;;;;;16.00;13.25;;;;;10.36;73.83;101818.38;5017889;28;45537;-70
2022/11/10 03:35:07;;;;;;;;;16.50;16.00;;;;;10.28;73.88;101815.59;5013038;28;45537;-69
2022/11/10 03:37:33;;;;;;;;;16.50;15.25;;;;;10.34;74.13;101810.47;5033322;28;45758;-67
2022/11/10 03:39:58;;;;;;;;;22.25;18.00;;;;;10.35;73.94;101814.00;5014882;28;45563;-68
2022/11/10 03:42:24;;;;;;;;;20.75;15.75;;;;;10.27;74.04;101813.78;5029027;28;45553;-68
2022/11/10 03:44:49;;;;;;;;;20.00;17.00;;;;;10.23;73.78;101821.53;5006442;28;46019;-68
2022/11/10 03:47:15;;;;;;;;;14.50;12.50;;;;;10.23;74.26;101830.31;5014482;28;47685;-69
2022/11/10 03:49:41;;;;;;;;;19.50;14.50;;;;;10.21;74.58;101828.50;5033206;28;45396;-68
2022/11/10 03:52:07;;;;;;;;;19.75;16.00;;;;;10.10;74.63;101823.03;5014948;28;45431;-68
2022/11/10 03:54:32;;;;;;;;;17.00;15.00;;;;;10.14;74.60;101827.50;5015009;28;45624;-69
2022/11/10 03:56:58;;;;;;;;;18.50;15.25;;;;;10.18;74.45;101824.97;5015328;28;46406;-67
2022/11/10 03:59:23;;;;;;;;;30.25;24.50;;;;;10.22;74.47;101822.41;5015621;28;45794;-69
2022/11/10 04:01:49;;;;;;;;;52.50;44.75;;;;;10.24;74.61;101839.03;5037175;28;45487;-68
2022/11/10 04:09:42;;;;;;;;;17.25;15.25;;;;;10.18;74.72;101851.16;5016106;28;45431;-67
2022/11/10 04:17:36;;;;;;;;;17.75;17.75;;;;;10.11;74.52;101837.91;5029131;28;45782;-68
2022/11/10 04:20:02;;;;;;;;;17.75;13.00;;;;;10.04;74.70;101842.13;5032235;28;45533;-68
2022/11/10 04:25:12;;;;;;;;;15.50;12.50;;;;;9.79;74.91;101818.88;5032886;28;45723;-75
2022/11/10 04:27:38;;;;;;;;;16.75;14.25;;;;;9.98;74.86;101845.47;5032926;28;45531;-73
2022/11/10 04:30:04;;;;;;;;;16.75;14.25;;;;;10.00;75.05;101848.13;5033259;28;45573;-70
2022/11/10 04:32:30;;;;;;;;;14.00;12.50;;;;;9.87;75.13;101848.69;5019197;28;45819;-68
2022/11/10 04:34:56;;;;;;;;;17.25;12.25;;;;;9.89;74.92;101852.22;5036027;28;45753;-68
2022/11/10 04:37:21;;;;;;;;;14.75;10.50;;;;;9.88;75.21;101853.97;5036020;28;45436;-68
2022/11/10 04:39:47;;;;;;;;;16.50;11.50;;;;;9.89;75.00;101860.06;5035887;28;45700;-67
2022/11/10 04:42:12;;;;;;;;;11.50;11.50;;;;;9.88;74.73;101856.59;5038232;28;45559;-67
2022/11/10 04:44:38;;;;;;;;;15.50;11.00;;;;;9.89;74.71;101865.31;5036512;28;45835;-68
2022/11/10 04:47:04;;;;;;;;;16.75;13.25;;;;;9.93;74.84;101872.41;5035864;28;45983;-67
2022/11/10 04:49:29;;;;;;;;;12.00;10.50;;;;;9.83;74.84;101868.69;5020603;28;45445;-68
2022/11/10 04:51:55;;;;;;;;;18.50;12.50;;;;;9.87;74.79;101882.72;5012462;28;45521;-69
2022/11/10 04:54:20;;;;;;;;;13.00;11.25;;;;;9.76;74.77;101861.53;5019574;28;45657;-69
2022/11/10 04:56:46;;;;;;;;;9.50;6.25;;;;;9.88;74.83;101884.50;5036015;28;45865;-67
2022/11/10 04:59:14;;;;;;;;;14.00;10.25;;;;;9.89;74.63;101888.88;5038109;28;45624;-66
2022/11/10 05:01:40;;;;;;;;;17.50;14.75;;;;;9.80;75.17;101888.66;5039743;28;45300;-67
2022/11/10 05:04:06;;;;;;;;;13.50;12.25;;;;;9.68;75.16;101868.31;5035917;28;45360;-68
2022/11/10 05:06:31;;;;;;;;;18.50;13.75;;;;;9.68;75.47;101881.38;5035677;28;45899;-67
2022/11/10 05:08:57;;;;;;;;;13.00;11.50;;;;;9.70;75.34;101906.72;5035669;28;45420;-76
2022/11/10 05:11:22;;;;;;;;;13.00;11.75;;;;;9.66;75.22;101898.81;5035328;28;45450;-67
2022/11/10 05:13:51;;;;;;;;;18.25;13.50;;;;;9.71;75.15;101902.41;5020507;28;45437;-67
2022/11/10 05:16:16;;;;;;;;;13.75;11.50;;;;;9.60;75.23;101885.56;5039621;28;46515;-71
2022/11/10 05:18:42;;;;;;;;;16.00;12.25;;;;;9.66;75.48;101920.63;5020257;28;45541;-72
2022/11/10 05:21:08;;;;;;;;;17.00;14.00;;;;;9.65;75.39;101920.56;5033774;28;45694;-66
2022/11/10 05:23:40;;;;;;;;;13.75;13.00;;;;;9.61;75.01;101916.09;5017409;28;45517;-70
2022/11/10 05:26:10;;;;;;;;;13.75;10.75;;;;;9.72;75.20;101922.47;5038329;28;46173;-66
2022/11/10 05:28:36;;;;;;;;;14.50;11.75;;;;;9.65;75.34;101923.19;5021216;28;45478;-68
2022/11/10 05:31:02;;;;;;;;;13.25;11.75;;;;;9.69;75.54;101930.25;5021667;28;45501;-71
2022/11/10 05:33:28;;;;;;;;;14.00;13.00;;;;;9.63;75.18;101922.25;5039077;28;45317;-68
2022/11/10 05:35:54;;;;;;;;;14.75;13.50;;;;;9.70;74.96;101927.66;5021099;28;46902;-73
2022/11/10 05:38:19;;;;;;;;;17.00;13.00;;;;;9.68;74.99;101934.63;5039050;28;45464;-68
2022/11/10 05:40:45;;;;;;;;;14.00;12.25;;;;;9.71;75.08;101945.16;5039494;28;45412;-73
2022/11/10 05:43:10;;;;;;;;;16.00;12.75;;;;;9.66;75.33;101940.66;5018418;28;45507;-68
2022/11/10 05:45:36;;;;;;;;;12.00;12.00;;;;;9.57;75.51;101936.06;5016972;28;47380;-68
2022/11/10 05:48:01;;;;;;;;;15.25;12.00;;;;;9.63;75.34;101951.91;5016592;28;45456;-69
2022/11/10 05:50:27;;;;;;;;;16.50;13.75;;;;;9.53;75.48;101947.28;5032678;28;45831;-69
2022/11/10 05:52:54;;;;;;;;;15.00;12.50;;;;;9.57;75.68;101949.16;5034684;28;45474;-67
2022/11/10 05:55:23;;;;;;;;;11.25;10.25;;;;;9.45;75.88;101935.75;5016513;28;46862;-67
2022/11/10 05:57:50;;;;;;;;;12.50;12.00;;;;;9.51;75.88;101962.06;5034137;28;45425;-69
2022/11/10 06:00:22;;;;;;;;;13.75;13.00;;;;;9.48;75.44;101943.69;5037441;28;45403;-71
2022/11/10 06:03:06;;;;;;;;;16.00;13.50;;;;;9.51;75.77;101955.09;5016753;28;45400;-68
2022/11/10 06:05:34;;;;;;;;;15.75;12.75;;;;;9.51;75.34;101952.47;5033780;28;45812;-68
2022/11/10 06:08:01;;;;;;;;;12.25;9.75;;;;;9.49;75.34;101953.28;5013571;28;45926;-68
2022/11/10 06:10:27;;;;;;;;;14.50;13.25;;;;;9.54;75.17;101957.81;5008491;28;45444;-72
2022/11/10 06:12:53;;;;;;;;;15.75;11.50;;;;;9.45;75.21;101951.47;5016139;28;45701;-67
2022/11/10 06:15:19;;;;;;;;;17.25;10.50;;;;;9.39;75.47;101951.28;5029612;28;45481;-69
2022/11/10 06:17:45;;;;;;;;;13.25;12.00;;;;;9.33;75.72;101950.28;5028334;28;45504;-68
2022/11/10 06:20:13;;;;;;;;;17.00;13.00;;;;;9.29;76.12;101971.06;5038734;28;45468;-68
2022/11/10 06:22:39;;;;;;;;;17.75;14.75;;;;;9.22;76.18;101961.28;5034796;28;45546;-66
2022/11/10 06:25:06;;;;;;;;;11.75;11.00;;;;;9.24;76.21;101957.88;5016420;28;46388;-67
2022/11/10 06:27:31;;;;;;;;;15.75;12.00;;;;;9.31;76.50;101972.00;5036828;28;45407;-74
2022/11/10 06:29:57;;;;;;;;;16.50;13.50;;;;;9.26;76.28;101969.25;5016398;28;45426;-70
2022/11/10 06:32:23;;;;;;;;;14.50;14.25;;;;;9.29;75.96;101971.06;5034456;28;45300;-68
2022/11/10 06:34:48;;;;;;;;;15.75;15.00;;;;;9.22;76.32;101972.63;5034411;28;45859;-71
2022/11/10 06:37:14;;;;;;;;;18.25;13.50;;;;;9.19;76.42;101984.75;5033653;28;45814;-68
2022/11/10 06:39:40;;;;;;;;;14.00;10.00;;;;;9.14;76.18;101963.72;5034372;28;45296;-69
2022/11/10 06:42:05;;;;;;;;;13.25;11.75;;;;;9.19;75.92;101976.91;5038832;28;45458;-70
2022/11/10 06:44:31;;;;;;;;;12.00;12.00;;;;;9.20;76.33;101990.00;5035938;28;45774;-68
2022/11/10 06:46:56;;;;;;;;;19.75;13.25;;;;;9.15;76.35;101996.84;5034492;28;45454;-72
2022/11/10 06:49:22;;;;;;;;;19.75;14.00;;;;;9.19;76.00;101996.09;5018174;28;45502;-67
2022/11/10 06:51:47;;;;;;;;;11.25;10.50;;;;;9.14;76.52;102002.91;5038117;28;45516;-67
2022/11/10 06:54:13;;;;;;;;;22.00;14.00;;;;;9.12;76.81;102018.53;5036598;28;46677;-76
2022/11/10 06:56:38;;;;;;;;;18.00;12.00;;;;;9.12;76.23;102023.78;5033720;28;46532;-67
2022/11/10 06:59:04;;;;;;;;;14.50;14.50;;;;;9.16;76.30;102024.75;5033709;28;45514;-67
2022/11/10 07:01:29;;;;;;;;;15.00;14.25;;;;;9.16;76.07;102016.91;5034021;28;45692;-67
2022/11/10 07:03:55;;;;;;;;;19.00;15.50;;;;;9.14;75.98;102018.59;5015191;28;46833;-68
2022/11/10 07:06:21;;;;;;;;;15.25;14.50;;;;;9.14;76.23;102042.13;5032687;28;45462;-68
2022/11/10 07:08:47;;;;;;;;;16.00;14.25;;;;;9.12;76.33;102043.81;5033529;28;45559;-70
2022/11/10 07:11:13;;;;;;;;;22.50;17.00;;;;;9.01;76.38;102040.84;5033653;28;45411;-67
2022/11/10 07:13:38;;;;;;;;;16.25;14.50;;;;;9.10;76.23;102053.31;5020749;28;45509;-70
2022/11/10 07:16:06;;;;;;;;;21.00;16.25;;;;;9.07;76.58;102055.84;5027918;28;45301;-68
2022/11/10 07:18:32;;;;;;;;;19.00;17.00;;;;;9.01;76.51;102051.31;5031167;28;45812;-68
2022/11/10 07:20:57;;;;;;;;;16.50;14.00;;;;;9.04;76.60;102066.19;5015868;28;45728;-67
2022/11/10 07:23:23;;;;;;;;;18.00;14.25;;;;;9.09;76.24;102072.47;5033062;28;46544;-67
2022/11/10 07:25:49;;;;;;;;;17.75;15.25;;;;;9.11;76.37;102073.38;5015426;28;45438;-74
2022/11/10 07:28:14;;;;;;;;;19.50;17.25;;;;;9.11;76.53;102081.22;5022875;28;45517;-70
2022/11/10 07:30:40;;;;;;;;;21.25;18.25;;;;;9.11;76.34;102078.59;5013738;28;45507;-68
2022/11/10 07:33:12;;;;;;;;;18.50;17.00;;;;;9.10;76.35;102079.47;5002301;28;46906;-74
2022/11/10 07:35:37;;;;;;;;;21.75;15.75;;;;;9.12;76.21;102077.78;5012267;28;45481;-67
2022/11/10 07:38:06;;;;;;;;;22.50;17.75;;;;;9.20;75.89;102086.72;5016643;28;45703;-69
2022/11/10 07:40:33;;;;;;;;;16.00;16.00;;;;;9.13;75.83;102072.63;5001359;28;45482;-68
2022/11/10 07:42:59;;;;;;;;;17.25;14.75;;;;;9.30;75.89;102099.25;5023591;28;46569;-66
2022/11/10 07:45:25;;;;;;;;;18.25;16.00;;;;;9.42;75.30;102100.41;5011514;28;45619;-68
2022/11/10 07:47:51;;;;;;;;;19.75;17.75;;;;;9.38;75.23;102090.72;5025522;28;45387;-70
2022/11/10 07:50:21;;;;;;;;;21.00;17.50;;;;;9.45;75.02;102096.16;5007609;28;45553;-67
2022/11/10 07:52:47;;;;;;;;;21.00;17.75;;;;;9.45;74.72;102100.53;5014091;28;45572;-67
2022/11/10 07:55:16;;;;;;;;;21.75;16.75;;;;;9.54;74.85;102116.47;5027727;28;45600;-66
2022/11/10 07:57:42;;;;;;;;;19.75;17.25;;;;;9.61;74.17;102096.59;5023733;28;45581;-70
2022/11/10 08:00:11;;;;;;;;;20.50;19.25;;;;;10.13;73.39;102108.44;4999775;28;45476;-71
2022/11/10 08:02:37;;;;;;;;;21.25;16.75;;;;;11.19;70.65;102129.34;5011580;28;47483;-67
2022/11/10 08:05:03;;;;;;;;;23.25;19.25;;;;;12.72;65.93;102133.97;5028375;28;45619;-73
2022/11/10 08:07:29;;;;;;;;;23.25;15.75;;;;;14.02;61.79;102133.88;5014043;28;45832;-70
2022/11/10 08:09:58;;;;;;;;;23.50;18.00;;;;;15.06;57.67;102134.75;5042120;28;45686;-67
2022/11/10 08:12:24;;;;;;;;;22.75;19.75;;;;;15.82;54.67;102130.69;5019100;28;45400;-73
2022/11/10 08:14:49;;;;;;;;;23.25;18.50;;;;;16.46;53.19;102137.81;5022024;28;45500;-74
2022/11/10 08:17:15;;;;;;;;;21.00;18.75;;;;;17.12;51.48;102145.72;5031372;28;45325;-69
2022/11/10 08:19:40;;;;;;;;;25.00;17.50;;;;;17.67;50.63;102148.13;5021553;28;45478;-68
2022/11/10 08:22:06;;;;;;;;;21.25;19.50;;;;;18.42;48.43;102137.06;5018226;28;46205;-70
2022/11/10 08:24:32;;;;;;;;;23.25;18.50;;;;;18.83;47.59;102138.50;5011179;28;45418;-68
2022/11/10 08:26:57;;;;;;;;;22.33;17.00;;;;;19.30;45.11;102151.28;5018338;28;45335;-67
2022/11/10 08:29:23;;;;;;;;;22.00;16.67;;;;;19.71;44.81;102158.75;5016023;28;45449;-67
2022/11/10 08:31:50;;;;;;;;;22.33;20.00;;;;;20.16;43.73;102156.34;5019403;28;45613;-72
2022/11/10 08:34:16;;;;;;;;;23.67;21.67;;;;;20.26;43.06;102157.97;5018304;28;45448;-67
2022/11/10 08:36:41;;;;;;;;;28.00;23.67;;;;;20.46;42.85;102152.31;5007506;28;45515;-68
2022/11/10 08:39:07;;;;;;;;;27.67;22.67;;;;;20.81;41.84;102150.88;5013967;28;45438;-68
2022/11/10 08:41:32;;;;;;;;;24.67;24.67;;;;;20.49;41.38;102162.03;5008243;28;47898;-68
2022/11/10 08:43:58;;;;;;;;;30.00;24.67;;;;;18.75;44.63;102137.69;5016859;28;45527;-68
2022/11/10 08:46:24;;;;;;;;;25.00;21.33;;;;;17.17;48.60;102162.47;5019711;28;45944;-67
2022/11/10 08:48:49;;;;;;;;;26.33;23.33;;;;;15.82;51.63;102170.31;5015929;28;45871;-69
2022/11/10 08:51:15;;;;;;;;;28.67;25.00;;;;;14.93;54.77;102170.75;5015415;28;46002;-70
2022/11/10 08:53:41;;;;;;;;;28.67;21.67;;;;;14.43;56.60;102190.53;5015443;28;45796;-67
2022/11/10 08:56:06;;;;;;;;;25.00;22.00;;;;;14.15;57.29;102188.50;5023883;28;45822;-67
2022/11/10 08:58:32;;;;;;;;;23.00;20.50;;;;;14.04;58.49;102195.38;5018672;28;45519;-74
2022/11/10 09:00:57;;;;;;;;;24.00;21.00;;;;;13.71;58.78;102192.38;5020985;28;45717;-71
2022/11/10 09:03:24;;;;;;;;;27.75;23.00;;;;;13.88;58.95;102194.31;5021231;28;45440;-67
2022/11/10 09:05:51;;;;;;;;;26.50;21.25;;;;;14.02;58.93;102202.38;5019591;28;45502;-67
2022/11/10 09:08:17;;;;;;;;;24.00;20.75;;;;;13.73;59.42;102206.44;5015229;28;45526;-74
2022/11/10 09:10:49;;;;;;;;;30.00;23.75;;;;;13.49;60.80;102214.91;5018165;28;45471;-69
2022/11/10 09:13:16;;;;;;;;;26.00;21.25;;;;;13.09;61.31;102216.03;5019962;28;45663;-68
2022/11/10 09:15:43;;;;;;;;;21.25;18.50;;;;;12.76;62.83;102225.16;5024599;28;45504;-67
2022/11/10 09:18:10;;;;;;;;;22.50;20.00;;;;;12.59;63.74;102235.38;5026770;28;45992;-67
2022/11/10 09:20:37;;;;;;;;;21.50;16.75;;;;;12.67;64.13;102230.25;5020502;28;47418;-67
2022/11/10 09:23:05;;;;;;;;;23.75;19.50;;;;;12.56;64.72;102229.22;5015312;28;45537;-66
2022/11/10 09:25:30;;;;;;;;;21.75;16.00;;;;;12.34;65.69;102228.81;5014737;28;45523;-71
2022/11/10 09:27:56;;;;;;;;;18.75;15.75;;;;;12.28;65.49;102229.56;5021960;28;45441;-67
2022/11/10 09:30:21;;;;;;;;;23.25;21.00;;;;;12.44;65.07;102240.38;5014707;28;46150;-66
2022/11/10 09:32:56;;;;;;;;;18.50;17.25;;;;;12.57;65.33;102236.22;5024955;28;45468;-70
2022/11/10 09:35:22;;;;;;;;;20.50;16.50;;;;;12.81;64.19;102235.75;5017121;28;45428;-66
2022/11/10 09:37:48;;;;;;;;;16.75;14.00;;;;;12.64;64.97;102228.47;5014962;28;45491;-66
2022/11/10 09:40:24;;;;;;;;;22.25;17.25;;;;;12.65;64.93;102239.88;5015085;28;45776;-66
2022/11/10 09:42:55;;;;;;;;;22.75;16.50;;;;;12.50;65.44;102246.66;5000700;28;45930;-65
2022/11/10 09:45:26;;;;;;;;;19.25;16.50;;;;;12.37;65.84;102254.28;5017322;28;45450;-65
2022/11/10 09:48:12;;;;;;;;;24.00;16.75;;;;;12.05;67.23;102252.78;5014371;28;45736;-67
2022/11/10 09:50:58;;;;;;;;;42.75;33.50;;;;;11.92;67.96;102263.00;4996087;28;46573;-66
2022/11/10 09:53:29;;;;;;;;;41.00;33.50;;;;;11.85;67.86;102259.31;5015080;28;45353;-66
2022/11/10 09:56:02;;;;;;;;;43.25;31.25;;;;;11.61;69.25;102252.69;5014747;28;45449;-65
2022/11/10 09:58:46;;;;;;;;;29.50;24.00;;;;;11.63;69.21;102255.38;5016694;28;45745;-65
2022/11/10 10:01:33;;;;;;;;;32.00;23.50;;;;;11.71;69.02;102259.03;5018541;28;45349;-70
2022/11/10 10:04:25;;;;;;;;;27.25;22.50;;;;;11.88;68.41;102255.03;5018652;28;45549;-71
2022/11/10 10:07:04;;;;;;;;;26.00;22.25;;;;;13.29;64.47;102247.97;5021137;28;45349;-70
2022/11/10 10:10:08;;;;;;;;;23.50;19.00;;;;;12.86;65.47;102255.13;5026488;28;45579;-66
2022/11/10 10:12:58;;;;;;;;;18.75;18.75;;;;;12.53;66.20;102264.22;5036604;28;46129;-66
2022/11/10 10:15:39;;;;;;;;;19.75;19.75;;;;;13.10;65.21;102257.28;5027305;28;45163;-67
2022/11/10 10:18:34;;;;;;;;;21.25;17.50;;;;;13.08;64.87;102282.69;5019812;28;45530;-67
2022/11/10 10:21:28;;;;;;;;;21.25;18.00;;;;;12.62;66.00;102282.75;4992794;28;45703;-67
2022/11/10 10:23:57;;;;;;;;;23.50;19.00;;;;;12.43;66.16;102276.28;5020452;28;45562;-68
2022/11/10 10:26:32;;;;;;;;;26.25;20.25;;;;;12.77;66.14;102302.31;5032279;28;45403;-65
2022/11/10 10:29:04;;;;;;;;;22.00;19.25;;;;;12.94;65.10;102288.59;5025434;28;45470;-66
2022/11/10 10:31:51;;;;;;;;;26.25;22.25;;;;;12.80;66.29;102300.63;5025088;28;45601;-66
2022/11/10 10:34:20;;;;;;;;;27.50;19.75;;;;;12.82;65.72;102305.91;5000017;28;46976;-67
2022/11/10 10:36:46;;;;;;;;;23.25;21.00;;;;;12.57;66.59;102294.03;5006748;28;45850;-66
2022/11/10 10:39:25;;;;;;;;;27.00;21.50;;;;;12.53;66.86;102316.78;5019585;28;45517;-66
2022/11/10 10:41:51;;;;;;;;;32.50;23.25;;;;;13.02;65.68;102317.63;5030721;28;45494;-70
2022/11/10 10:44:18;;;;;;;;;25.75;21.00;;;;;12.82;65.98;102322.56;5017697;28;46487;-70
2022/11/10 10:46:55;;;;;;;;;30.50;26.75;;;;;12.48;66.94;102306.16;5018645;28;45511;-72
2022/11/10 10:49:26;;;;;;;;;25.75;21.50;;;;;12.69;66.85;102338.97;5017822;28;45289;-65
2022/11/10 10:52:02;;;;;;;;;25.25;21.50;;;;;12.58;67.08;102333.50;5022561;28;45511;-65
2022/11/10 10:54:30;;;;;;;;;28.00;22.75;;;;;12.35;68.05;102319.03;5015970;28;45386;-67
2022/11/10 10:57:24;;;;;;;;;32.50;23.75;;;;;12.47;67.96;102329.78;5016323;28;45528;-72
2022/11/10 10:59:50;;;;;;;;;30.25;25.50;;;;;12.55;67.97;102328.19;5010663;28;45341;-66
2022/11/10 11:02:25;;;;;;;;;29.50;23.00;;;;;12.77;67.61;102318.97;5001225;28;45653;-67
2022/11/10 11:05:11;;;;;;;;;26.50;23.00;;;;;12.78;67.52;102314.59;5010928;28;47240;-68
2022/11/10 11:07:37;;;;;;;;;23.50;21.75;;;;;13.03;66.41;102316.81;5011661;28;45538;-66
2022/11/10 11:10:15;;;;;;;;;27.75;23.50;;;;;12.82;67.57;102321.69;5018261;28;45459;-65
2022/11/10 11:12:41;;;;;;;;;24.00;21.50;;;;;12.98;66.38;102300.06;5018675;28;45269;-66
2022/11/10 11:15:27;;;;;;;;;23.50;20.25;;;;;13.32;65.37;102304.16;5016722;28;46072;-65
2022/11/10 11:18:01;;;;;;;;;20.75;18.50;;;;;13.18;66.54;102310.03;5017878;28;45392;-66
2022/11/10 11:20:36;;;;;;;;;19.75;17.25;;;;;13.01;66.74;102304.50;5016282;28;45573;-66
2022/11/10 11:23:27;;;;;;;;;26.50;19.75;;;;;13.68;66.06;102317.84;5005596;28;46383;-66
2022/11/10 11:26:00;;;;;;;;;23.75;18.75;;;;;14.32;62.96;102304.63;5015325;28;45383;-66
2022/11/10 11:29:02;;;;;;;;;22.75;17.00;;;;;16.75;58.15;102321.25;5012835;28;45469;-68
2022/11/10 11:31:55;;;;;;;;;26.25;20.00;;;;;16.75;55.93;102293.91;5006295;28;45496;-71
2022/11/10 11:34:42;;;;;;;;;21.75;17.75;;;;;15.22;59.84;102305.53;5019596;28;45524;-65